createdAt,value
2017-03-15T00:00:07.147Z,22.11
2017-03-15T00:00:21.360Z,22.12
2017-03-15T00:00:35.551Z,22.11
2017-03-15T00:00:49.787Z,22.11
2017-03-15T00:01:03.956Z,22.09
2017-03-15T00:01:18.099Z,22.11
2017-03-15T00:01:32.337Z,22.11
2017-03-15T00:01:46.539Z,22.11
2017-03-15T00:02:00.770Z,22.09
2017-03-15T00:02:14.950Z,22.12
2017-03-15T00:02:29.057Z,22.18
2017-03-15T00:02:43.253Z,22.2
2017-03-15T00:02:57.425Z,22.22
2017-03-15T00:03:11.582Z,22.14
2017-03-15T00:03:25.727Z,22.11
2017-03-15T00:03:39.910Z,22.2
2017-03-15T00:03:54.166Z,22.22
2017-03-15T00:04:08.324Z,22.22
2017-03-15T00:04:22.474Z,22.14
2017-03-15T00:04:36.622Z,22.08
2017-03-15T00:04:50.833Z,22.09
2017-03-15T00:05:04.921Z,22.12
2017-03-15T00:05:19.083Z,22.12
2017-03-15T00:05:33.292Z,22.08
2017-03-15T00:05:47.485Z,22.08
2017-03-15T00:06:01.716Z,22.11
2017-03-15T00:06:15.870Z,22.07
2017-03-15T00:06:30.030Z,22.11
2017-03-15T00:06:44.234Z,22.12
2017-03-15T00:06:58.459Z,22.16
2017-03-15T00:07:12.760Z,22.11
2017-03-15T00:07:26.948Z,22.07
2017-03-15T00:07:41.194Z,22.07
2017-03-15T00:07:55.391Z,22.14
2017-03-15T00:08:09.544Z,22.09
2017-03-15T00:08:23.682Z,22.14
2017-03-15T00:08:37.857Z,22.12
2017-03-15T00:08:52.236Z,22.09
2017-03-15T00:09:06.649Z,22.14
2017-03-15T00:09:20.867Z,22.12
2017-03-15T00:09:35.045Z,22.09
2017-03-15T00:09:49.176Z,22.14
2017-03-15T00:10:03.335Z,22.2
2017-03-15T00:10:17.558Z,22.2
2017-03-15T00:10:31.755Z,22.24
2017-03-15T00:10:45.896Z,22.16
2017-03-15T00:11:00.020Z,22.22
2017-03-15T00:11:14.191Z,22.14
2017-03-15T00:11:28.341Z,22.22
2017-03-15T00:11:42.549Z,22.09
2017-03-15T00:11:56.709Z,22.09
2017-03-15T00:12:10.862Z,22.09
2017-03-15T00:12:25.082Z,22.09
2017-03-15T00:12:39.224Z,22.08
2017-03-15T00:12:53.424Z,22.09
2017-03-15T00:13:07.665Z,22.09
2017-03-15T00:13:21.848Z,22.09
2017-03-15T00:13:36.051Z,22.08
2017-03-15T00:13:50.200Z,22.11
2017-03-15T00:14:04.355Z,22.12
2017-03-15T00:14:18.607Z,22.09
2017-03-15T00:14:32.745Z,22.07
2017-03-15T00:14:46.949Z,22.08
2017-03-15T00:15:01.384Z,22.11
2017-03-15T00:15:15.504Z,22.04
2017-03-15T00:15:29.722Z,21.99
2017-03-15T00:15:43.918Z,22.12
2017-03-15T00:15:58.025Z,22.02
2017-03-15T00:16:12.252Z,22.12
2017-03-15T00:16:26.419Z,22.09
2017-03-15T00:16:40.619Z,22.08
2017-03-15T00:16:54.760Z,22.18
2017-03-15T00:17:09.045Z,22.23
2017-03-15T00:17:23.245Z,22.23
2017-03-15T00:17:37.434Z,22.2
2017-03-15T00:17:51.669Z,22.18
2017-03-15T00:18:05.839Z,22.18
2017-03-15T00:18:20.081Z,22.18
2017-03-15T00:18:34.261Z,22.23
2017-03-15T00:18:48.448Z,22.26
2017-03-15T00:19:02.631Z,22.16
2017-03-15T00:19:16.854Z,22.18
2017-03-15T00:19:30.987Z,22.18
2017-03-15T00:19:45.146Z,22.2
2017-03-15T00:19:59.399Z,22.18
2017-03-15T00:20:13.544Z,22.15
2017-03-15T00:20:27.678Z,22.26
2017-03-15T00:20:42.324Z,22.24
2017-03-15T00:20:56.543Z,22.31
2017-03-15T00:21:10.724Z,22.36
2017-03-15T00:21:24.925Z,22.29
2017-03-15T00:21:39.041Z,22.29
2017-03-15T00:21:53.199Z,22.34
2017-03-15T00:22:07.379Z,22.45
2017-03-15T00:22:21.522Z,22.38
2017-03-15T00:22:35.661Z,22.42
2017-03-15T00:22:49.853Z,22.46
2017-03-15T00:23:04.028Z,22.49
2017-03-15T00:23:18.306Z,22.51
2017-03-15T00:23:32.486Z,22.45
2017-03-15T00:23:46.701Z,22.49
2017-03-15T00:24:00.898Z,22.48
2017-03-15T00:24:15.238Z,22.42
2017-03-15T00:24:29.404Z,22.42
2017-03-15T00:24:43.641Z,22.3
2017-03-15T00:24:57.811Z,22.41
2017-03-15T00:25:11.963Z,22.3
2017-03-15T00:25:26.083Z,22.36
2017-03-15T00:25:40.237Z,22.39
2017-03-15T00:25:54.417Z,22.33
2017-03-15T00:26:08.550Z,22.36
2017-03-15T00:26:22.777Z,22.29
2017-03-15T00:26:36.933Z,22.31
2017-03-15T00:26:51.125Z,22.22
2017-03-15T00:27:05.361Z,22.3
2017-03-15T00:27:19.520Z,22.27
2017-03-15T00:27:33.679Z,22.33
2017-03-15T00:27:47.842Z,22.31
2017-03-15T00:28:02.047Z,22.22
2017-03-15T00:28:16.223Z,22.3
2017-03-15T00:28:30.451Z,22.31
2017-03-15T00:28:44.658Z,22.27
2017-03-15T00:28:58.872Z,22.29
2017-03-15T00:29:12.996Z,22.3
2017-03-15T00:29:27.232Z,22.3
2017-03-15T00:29:41.431Z,22.33
2017-03-15T00:29:55.591Z,22.31
2017-03-15T00:30:09.777Z,22.31
2017-03-15T00:30:23.966Z,22.31
2017-03-15T00:30:38.147Z,22.29
2017-03-15T00:30:52.324Z,22.29
2017-03-15T00:31:06.528Z,22.24
2017-03-15T00:31:20.883Z,22.2
2017-03-15T00:31:35.086Z,22.15
2017-03-15T00:31:49.321Z,22.2
2017-03-15T00:32:03.533Z,22.22
2017-03-15T00:32:17.718Z,22.14
2017-03-15T00:32:32.120Z,22.23
2017-03-15T00:32:46.261Z,22.12
2017-03-15T00:33:00.525Z,22.08
2017-03-15T00:33:14.691Z,22.11
2017-03-15T00:33:28.898Z,22.09
2017-03-15T00:33:43.104Z,22.07
2017-03-15T00:33:57.215Z,22.07
2017-03-15T00:34:11.774Z,22.14
2017-03-15T00:34:25.889Z,21.97
2017-03-15T00:34:40.064Z,22.05
2017-03-15T00:34:54.326Z,22.05
2017-03-15T00:35:08.762Z,21.96
2017-03-15T00:35:22.965Z,22.04
2017-03-15T00:35:37.094Z,21.97
2017-03-15T00:35:51.247Z,22.04
2017-03-15T00:36:05.430Z,21.96
2017-03-15T00:36:19.579Z,22.04
2017-03-15T00:36:33.707Z,22.08
2017-03-15T00:36:47.889Z,21.99
2017-03-15T00:37:02.108Z,21.97
2017-03-15T00:37:16.248Z,21.93
2017-03-15T00:37:30.450Z,21.99
2017-03-15T00:37:44.645Z,21.99
2017-03-15T00:37:58.828Z,21.99
2017-03-15T00:38:13.009Z,21.96
2017-03-15T00:38:27.210Z,22.02
2017-03-15T00:38:41.384Z,21.9
2017-03-15T00:38:55.545Z,21.97
2017-03-15T00:39:09.679Z,21.9
2017-03-15T00:39:24.018Z,21.85
2017-03-15T00:39:38.111Z,21.89
2017-03-15T00:39:52.224Z,21.93
2017-03-15T00:40:06.362Z,21.9
2017-03-15T00:40:20.510Z,21.86
2017-03-15T00:40:34.686Z,21.9
2017-03-15T00:40:48.840Z,21.82
2017-03-15T00:41:02.970Z,21.83
2017-03-15T00:41:17.108Z,21.83
2017-03-15T00:41:31.241Z,21.83
2017-03-15T00:41:45.357Z,21.89
2017-03-15T00:41:59.518Z,21.86
2017-03-15T00:42:13.686Z,21.9
2017-03-15T00:42:27.809Z,21.86
2017-03-15T00:42:42.022Z,21.83
2017-03-15T00:42:56.182Z,21.82
2017-03-15T00:43:10.366Z,21.74
2017-03-15T00:43:24.474Z,21.8
2017-03-15T00:43:38.627Z,21.7
2017-03-15T00:43:52.762Z,21.74
2017-03-15T00:44:06.974Z,21.66
2017-03-15T00:44:21.134Z,21.71
2017-03-15T00:44:35.247Z,21.66
2017-03-15T00:44:49.511Z,21.64
2017-03-15T00:45:03.919Z,21.66
2017-03-15T00:45:18.092Z,21.55
2017-03-15T00:45:32.228Z,21.62
2017-03-15T00:45:46.354Z,21.56
2017-03-15T00:46:00.496Z,21.61
2017-03-15T00:46:14.649Z,21.52
2017-03-15T00:46:28.789Z,21.49
2017-03-15T00:46:42.962Z,21.48
2017-03-15T00:46:57.185Z,21.43
2017-03-15T00:47:11.321Z,21.43
2017-03-15T00:47:25.472Z,21.45
2017-03-15T00:47:39.677Z,21.37
2017-03-15T00:47:53.835Z,21.37
2017-03-15T00:48:08.064Z,21.33
2017-03-15T00:48:22.280Z,21.34
2017-03-15T00:48:36.423Z,21.37
2017-03-15T00:48:50.639Z,21.34
2017-03-15T00:49:04.893Z,21.38
2017-03-15T00:49:19.277Z,21.3
2017-03-15T00:49:33.484Z,21.25
2017-03-15T00:49:47.639Z,21.21
2017-03-15T00:50:01.837Z,21.28
2017-03-15T00:50:16.065Z,21.31
2017-03-15T00:50:30.229Z,21.3
2017-03-15T00:50:44.435Z,21.33
2017-03-15T00:50:58.577Z,21.31
2017-03-15T00:51:12.657Z,21.19
2017-03-15T00:51:26.795Z,21.23
2017-03-15T00:51:40.960Z,21.28
2017-03-15T00:51:55.165Z,21.18
2017-03-15T00:52:09.345Z,21.22
2017-03-15T00:52:23.515Z,21.18
2017-03-15T00:52:37.667Z,21.21
2017-03-15T00:52:51.807Z,21.16
2017-03-15T00:53:05.963Z,21.16
2017-03-15T00:53:20.101Z,21.22
2017-03-15T00:53:34.290Z,21.19
2017-03-15T00:53:48.446Z,21.21
2017-03-15T00:54:02.544Z,21.13
2017-03-15T00:54:16.704Z,21.22
2017-03-15T00:54:31.098Z,21.13
2017-03-15T00:54:45.249Z,21.16
2017-03-15T00:54:59.401Z,21.13
2017-03-15T00:55:13.686Z,21.12
2017-03-15T00:55:27.852Z,21.13
2017-03-15T00:55:42.042Z,21.09
2017-03-15T00:55:56.151Z,21.06
2017-03-15T00:56:10.514Z,21.03
2017-03-15T00:56:24.614Z,21.09
2017-03-15T00:56:38.775Z,21.04
2017-03-15T00:56:52.902Z,21.03
2017-03-15T00:57:07.076Z,21
2017-03-15T00:57:21.272Z,21.09
2017-03-15T00:57:35.426Z,20.97
2017-03-15T00:57:49.622Z,21.06
2017-03-15T00:58:03.781Z,20.96
2017-03-15T00:58:17.966Z,21.01
2017-03-15T00:58:32.105Z,20.98
2017-03-15T00:58:46.356Z,20.93
2017-03-15T00:59:00.534Z,20.98
2017-03-15T00:59:14.740Z,20.94
2017-03-15T00:59:28.887Z,20.93
2017-03-15T00:59:43.026Z,20.85
2017-03-15T00:59:57.222Z,20.91
2017-03-15T01:00:11.350Z,20.96
2017-03-15T01:00:25.528Z,20.94
2017-03-15T01:00:39.716Z,20.93
2017-03-15T01:00:53.919Z,21
2017-03-15T01:01:08.068Z,21.06
2017-03-15T01:01:22.215Z,21.03
2017-03-15T01:01:36.342Z,21.01
2017-03-15T01:01:50.526Z,21.09
2017-03-15T01:02:04.745Z,21.06
2017-03-15T01:02:18.910Z,21.04
2017-03-15T01:02:33.070Z,21.09
2017-03-15T01:02:47.193Z,21
2017-03-15T01:03:01.387Z,21.06
2017-03-15T01:03:15.540Z,21
2017-03-15T01:03:29.741Z,21.03
2017-03-15T01:03:43.936Z,21.03
2017-03-15T01:03:58.088Z,21.04
2017-03-15T01:04:12.214Z,21.03
2017-03-15T01:04:26.393Z,21.08
2017-03-15T01:04:40.542Z,21.03
2017-03-15T01:04:54.733Z,21.01
2017-03-15T01:05:08.874Z,21.03
2017-03-15T01:05:23.031Z,21.06
2017-03-15T01:05:37.132Z,21.01
2017-03-15T01:05:51.280Z,21.08
2017-03-15T01:06:05.542Z,21
2017-03-15T01:06:19.755Z,21.04
2017-03-15T01:06:33.932Z,21.04
2017-03-15T01:06:48.145Z,21.03
2017-03-15T01:07:02.339Z,21.09
2017-03-15T01:07:16.456Z,21.09
2017-03-15T01:07:30.601Z,21.09
2017-03-15T01:07:44.762Z,21.08
2017-03-15T01:07:58.953Z,21.06
2017-03-15T01:08:13.138Z,21.09
2017-03-15T01:08:27.321Z,21.18
2017-03-15T01:08:41.532Z,21.18
2017-03-15T01:08:55.689Z,21.22
2017-03-15T01:09:09.920Z,21.3
2017-03-15T01:09:24.129Z,21.28
2017-03-15T01:09:38.536Z,21.27
2017-03-15T01:09:52.665Z,21.25
2017-03-15T01:10:06.816Z,21.34
2017-03-15T01:10:21.026Z,21.37
2017-03-15T01:10:35.184Z,21.37
2017-03-15T01:10:49.350Z,21.3
2017-03-15T01:11:03.567Z,21.4
2017-03-15T01:11:17.801Z,21.36
2017-03-15T01:11:31.917Z,21.23
2017-03-15T01:11:46.074Z,21.25
2017-03-15T01:12:00.253Z,21.28
2017-03-15T01:12:14.420Z,21.27
2017-03-15T01:12:28.647Z,21.33
2017-03-15T01:12:42.795Z,21.34
2017-03-15T01:12:56.937Z,21.34
2017-03-15T01:13:11.080Z,21.36
2017-03-15T01:13:25.246Z,21.27
2017-03-15T01:13:39.381Z,21.33
2017-03-15T01:13:53.493Z,21.37
2017-03-15T01:14:07.678Z,21.23
2017-03-15T01:14:21.805Z,21.43
2017-03-15T01:14:35.991Z,21.31
2017-03-15T01:14:50.185Z,21.36
2017-03-15T01:15:04.329Z,21.34
2017-03-15T01:15:18.476Z,21.34
2017-03-15T01:15:32.710Z,21.37
2017-03-15T01:15:46.911Z,21.37
2017-03-15T01:16:01.043Z,21.38
2017-03-15T01:16:15.244Z,21.4
2017-03-15T01:16:29.401Z,21.37
2017-03-15T01:16:43.612Z,21.46
2017-03-15T01:16:57.710Z,21.46
2017-03-15T01:17:11.935Z,21.49
2017-03-15T01:17:26.085Z,21.45
2017-03-15T01:17:40.250Z,21.45
2017-03-15T01:17:54.379Z,21.45
2017-03-15T01:18:08.562Z,21.43
2017-03-15T01:18:22.701Z,21.4
2017-03-15T01:18:36.879Z,21.36
2017-03-15T01:18:51.062Z,21.37
2017-03-15T01:19:05.259Z,21.4
2017-03-15T01:19:19.394Z,21.36
2017-03-15T01:19:33.555Z,21.4
2017-03-15T01:19:47.989Z,21.41
2017-03-15T01:20:02.209Z,21.41
2017-03-15T01:20:16.351Z,21.46
2017-03-15T01:20:30.530Z,21.55
2017-03-15T01:20:44.699Z,21.52
2017-03-15T01:20:58.902Z,21.56
2017-03-15T01:21:13.105Z,21.55
2017-03-15T01:21:27.265Z,21.55
2017-03-15T01:21:41.469Z,21.62
2017-03-15T01:21:55.609Z,21.66
2017-03-15T01:22:09.745Z,21.74
2017-03-15T01:22:24.519Z,21.7
2017-03-15T01:22:38.708Z,21.74
2017-03-15T01:22:52.935Z,21.78
2017-03-15T01:23:07.130Z,21.78
2017-03-15T01:23:21.299Z,21.85
2017-03-15T01:23:35.476Z,21.9
2017-03-15T01:23:49.664Z,21.83
2017-03-15T01:24:03.774Z,21.9
2017-03-15T01:24:17.958Z,21.86
2017-03-15T01:24:32.135Z,21.86
2017-03-15T01:24:46.380Z,21.82
2017-03-15T01:25:10.767Z,21.86
2017-03-15T01:25:24.999Z,21.92
2017-03-15T01:25:39.259Z,21.85
2017-03-15T01:25:53.383Z,21.92
2017-03-15T01:26:07.561Z,21.89
2017-03-15T01:26:21.731Z,22.02
2017-03-15T01:26:35.946Z,21.96
2017-03-15T01:26:50.139Z,21.9
2017-03-15T01:27:35.328Z,21.99
2017-03-15T01:28:20.730Z,22.08
2017-03-15T01:28:34.880Z,22.04
2017-03-15T01:28:49.026Z,22
2017-03-15T01:29:03.206Z,22.07
2017-03-15T01:29:48.336Z,22.05
2017-03-15T01:30:02.486Z,21.96
2017-03-15T01:30:16.658Z,21.99
2017-03-15T01:31:01.839Z,21.93
2017-03-15T01:31:15.966Z,21.93
2017-03-15T01:32:01.108Z,21.85
2017-03-15T01:32:15.263Z,21.9
2017-03-15T01:32:29.367Z,21.89
2017-03-15T01:32:43.544Z,21.85
2017-03-15T01:32:57.695Z,21.89
2017-03-15T01:33:11.866Z,21.8
2017-03-15T01:33:26.009Z,21.86
2017-03-15T01:33:40.170Z,21.83
2017-03-15T01:33:54.367Z,21.82
2017-03-15T01:34:09.767Z,21.78
2017-03-15T01:34:23.936Z,21.77
2017-03-15T01:34:38.078Z,21.74
2017-03-15T01:34:52.290Z,21.73
2017-03-15T01:35:06.498Z,21.74
2017-03-15T01:35:20.687Z,21.73
2017-03-15T01:35:34.858Z,21.9
2017-03-15T01:35:59.242Z,21.85
2017-03-15T01:36:13.406Z,21.8
2017-03-15T01:36:27.640Z,21.89
2017-03-15T01:36:41.847Z,21.9
2017-03-15T01:36:56.046Z,21.86
2017-03-15T01:37:10.202Z,21.92
2017-03-15T01:37:24.365Z,21.9
2017-03-15T01:37:38.503Z,21.96
2017-03-15T01:37:52.650Z,21.97
2017-03-15T01:38:06.817Z,21.86
2017-03-15T01:38:21.064Z,21.97
2017-03-15T01:38:35.223Z,21.93
2017-03-15T01:38:49.342Z,21.92
2017-03-15T01:39:03.492Z,21.92
2017-03-15T01:39:17.640Z,21.9
2017-03-15T01:39:31.813Z,21.9
2017-03-15T01:39:46.188Z,21.96
2017-03-15T01:40:00.541Z,21.96
2017-03-15T01:40:14.715Z,21.92
2017-03-15T01:40:28.812Z,21.92
2017-03-15T01:40:43.007Z,21.97
2017-03-15T01:40:57.203Z,21.97
2017-03-15T01:41:11.289Z,22
2017-03-15T01:41:25.477Z,22.05
2017-03-15T01:41:39.605Z,21.9
2017-03-15T01:41:53.786Z,22.04
2017-03-15T01:42:07.890Z,21.97
2017-03-15T01:42:21.994Z,22.07
2017-03-15T01:42:36.070Z,21.92
2017-03-15T01:42:50.285Z,22.07
2017-03-15T01:43:04.446Z,21.93
2017-03-15T01:43:18.574Z,22
2017-03-15T01:43:32.752Z,21.93
2017-03-15T01:43:46.919Z,22
2017-03-15T01:44:01.092Z,21.96
2017-03-15T01:44:15.331Z,21.99
2017-03-15T01:44:29.499Z,21.94
2017-03-15T01:44:43.670Z,21.96
2017-03-15T01:44:57.818Z,21.96
2017-03-15T01:45:11.940Z,21.96
2017-03-15T01:45:26.117Z,21.9
2017-03-15T01:45:40.259Z,21.85
2017-03-15T01:45:54.458Z,21.89
2017-03-15T01:46:08.613Z,21.96
2017-03-15T01:46:22.783Z,21.96
2017-03-15T01:46:37.004Z,21.97
2017-03-15T01:46:51.143Z,21.92
2017-03-15T01:47:05.387Z,21.97
2017-03-15T01:47:19.500Z,21.9
2017-03-15T01:47:33.719Z,21.89
2017-03-15T01:47:47.849Z,21.94
2017-03-15T01:48:02.010Z,21.86
2017-03-15T01:48:16.098Z,21.93
2017-03-15T01:48:30.186Z,21.93
2017-03-15T01:48:44.367Z,21.97
2017-03-15T01:48:58.503Z,21.89
2017-03-15T01:49:12.716Z,22.02
2017-03-15T01:49:26.865Z,21.99
2017-03-15T01:49:40.979Z,21.89
2017-03-15T01:49:55.127Z,21.96
2017-03-15T01:50:09.296Z,22.02
2017-03-15T01:50:23.447Z,22.04
2017-03-15T01:50:38.397Z,22.07
2017-03-15T01:50:52.549Z,22.04
2017-03-15T01:51:06.701Z,22
2017-03-15T01:51:20.812Z,22.07
2017-03-15T01:51:35.205Z,22.04
2017-03-15T01:52:20.758Z,22.12
2017-03-15T01:52:37.956Z,22.09
2017-03-15T01:52:52.159Z,22.14
2017-03-15T01:53:06.305Z,22.07
2017-03-15T01:53:20.493Z,22.11
2017-03-15T01:53:34.670Z,22.08
2017-03-15T01:53:48.823Z,22.08
2017-03-15T01:54:03.046Z,22.11
2017-03-15T01:54:17.227Z,22.07
2017-03-15T01:54:31.427Z,22.09
2017-03-15T01:54:45.587Z,22.16
2017-03-15T01:54:59.968Z,22.08
2017-03-15T01:55:14.053Z,22.09
2017-03-15T01:55:28.171Z,22.11
2017-03-15T01:55:42.340Z,22.12
2017-03-15T01:55:56.514Z,22.14
2017-03-15T01:56:10.614Z,22.11
2017-03-15T01:56:24.714Z,22.05
2017-03-15T01:56:38.844Z,22.09
2017-03-15T01:56:53.020Z,22.14
2017-03-15T01:57:07.198Z,22.09
2017-03-15T01:57:21.332Z,22.12
2017-03-15T01:57:35.433Z,22.07
2017-03-15T01:57:49.605Z,22.07
2017-03-15T01:58:03.763Z,22.05
2017-03-15T01:58:18.131Z,21.97
2017-03-15T01:58:32.248Z,21.96
2017-03-15T01:58:46.408Z,21.93
2017-03-15T01:59:00.542Z,21.99
2017-03-15T01:59:14.639Z,21.94
2017-03-15T01:59:28.850Z,21.96
2017-03-15T01:59:43.028Z,21.92
2017-03-15T01:59:57.257Z,21.96
2017-03-15T02:00:11.423Z,21.93
2017-03-15T02:00:25.593Z,21.92
2017-03-15T02:00:39.783Z,21.9
2017-03-15T02:00:53.962Z,21.9
2017-03-15T02:01:08.250Z,21.86
2017-03-15T02:01:22.469Z,21.86
2017-03-15T02:01:36.706Z,21.86
2017-03-15T02:01:50.891Z,21.9
2017-03-15T02:02:05.059Z,21.86
2017-03-15T02:02:19.188Z,21.85
2017-03-15T02:02:33.300Z,21.85
2017-03-15T02:02:47.465Z,21.9
2017-03-15T02:03:01.654Z,21.86
2017-03-15T02:03:15.828Z,21.86
2017-03-15T02:03:29.965Z,21.77
2017-03-15T02:03:44.096Z,21.93
2017-03-15T02:03:58.225Z,21.94
2017-03-15T02:04:12.370Z,21.93
2017-03-15T02:04:26.512Z,21.89
2017-03-15T02:04:40.727Z,21.94
2017-03-15T02:04:54.918Z,21.89
2017-03-15T02:05:09.024Z,21.86
2017-03-15T02:05:23.151Z,21.89
2017-03-15T02:05:37.321Z,21.86
2017-03-15T02:05:51.428Z,21.93
2017-03-15T02:06:05.541Z,21.92
2017-03-15T02:06:19.726Z,21.85
2017-03-15T02:06:33.873Z,21.92
2017-03-15T02:06:48.077Z,21.96
2017-03-15T02:07:02.495Z,21.96
2017-03-15T02:07:16.655Z,21.96
2017-03-15T02:07:30.951Z,21.93
2017-03-15T02:07:45.068Z,21.97
2017-03-15T02:07:59.258Z,22.07
2017-03-15T02:08:13.473Z,21.96
2017-03-15T02:08:27.682Z,22.02
2017-03-15T02:08:41.774Z,21.97
2017-03-15T02:08:56.033Z,22.04
2017-03-15T02:09:10.177Z,22.04
2017-03-15T02:09:24.370Z,22.11
2017-03-15T02:09:38.607Z,22.14
2017-03-15T02:09:52.801Z,22.07
2017-03-15T02:10:07.169Z,22.07
2017-03-15T02:10:21.347Z,22.07
2017-03-15T02:10:35.565Z,22.2
2017-03-15T02:10:49.685Z,22.16
2017-03-15T02:11:03.896Z,22.15
2017-03-15T02:11:18.080Z,22.23
2017-03-15T02:11:32.250Z,22.16
2017-03-15T02:11:46.450Z,22.2
2017-03-15T02:12:00.620Z,22.16
2017-03-15T02:12:14.758Z,22.11
2017-03-15T02:12:28.890Z,22.08
2017-03-15T02:12:43.046Z,22.09
2017-03-15T02:12:57.224Z,22.12
2017-03-15T02:13:11.315Z,22.02
2017-03-15T02:13:25.417Z,21.96
2017-03-15T02:13:39.535Z,21.97
2017-03-15T02:13:53.657Z,21.9
2017-03-15T02:14:07.775Z,21.94
2017-03-15T02:14:21.913Z,21.99
2017-03-15T02:14:36.083Z,21.83
2017-03-15T02:14:50.145Z,21.86
2017-03-15T02:15:04.315Z,21.85
2017-03-15T02:15:18.479Z,21.82
2017-03-15T02:15:32.631Z,21.83
2017-03-15T02:15:46.834Z,21.76
2017-03-15T02:16:00.944Z,21.73
2017-03-15T02:16:15.125Z,21.74
2017-03-15T02:16:29.224Z,21.74
2017-03-15T02:16:43.344Z,21.71
2017-03-15T02:16:57.517Z,21.71
2017-03-15T02:17:11.658Z,21.68
2017-03-15T02:17:25.769Z,21.68
2017-03-15T02:17:39.887Z,21.68
2017-03-15T02:17:54.054Z,21.67
2017-03-15T02:18:08.156Z,21.67
2017-03-15T02:18:22.284Z,21.55
2017-03-15T02:18:36.368Z,21.64
2017-03-15T02:18:50.592Z,21.61
2017-03-15T02:19:04.730Z,21.58
2017-03-15T02:19:18.876Z,21.66
2017-03-15T02:19:32.992Z,21.56
2017-03-15T02:19:47.124Z,21.56
2017-03-15T02:20:01.297Z,21.61
2017-03-15T02:20:15.403Z,21.58
2017-03-15T02:20:29.474Z,21.52
2017-03-15T02:20:43.595Z,21.52
2017-03-15T02:20:57.704Z,21.53
2017-03-15T02:21:11.871Z,21.46
2017-03-15T02:21:25.971Z,21.51
2017-03-15T02:21:40.195Z,21.49
2017-03-15T02:21:54.328Z,21.41
2017-03-15T02:22:08.498Z,21.51
2017-03-15T02:22:22.634Z,21.45
2017-03-15T02:22:36.820Z,21.4
2017-03-15T02:22:50.991Z,21.38
2017-03-15T02:23:05.130Z,21.46
2017-03-15T02:23:19.269Z,21.43
2017-03-15T02:23:33.442Z,21.45
2017-03-15T02:23:47.539Z,21.41
2017-03-15T02:24:01.636Z,21.4
2017-03-15T02:24:15.779Z,21.34
2017-03-15T02:24:29.911Z,21.45
2017-03-15T02:24:43.989Z,21.48
2017-03-15T02:24:58.111Z,21.46
2017-03-15T02:25:12.400Z,21.45
2017-03-15T02:25:26.531Z,21.49
2017-03-15T02:25:40.640Z,21.43
2017-03-15T02:25:54.741Z,21.48
2017-03-15T02:26:08.825Z,21.46
2017-03-15T02:26:22.939Z,21.45
2017-03-15T02:26:37.076Z,21.49
2017-03-15T02:26:51.169Z,21.46
2017-03-15T02:27:05.236Z,21.48
2017-03-15T02:27:19.359Z,21.49
2017-03-15T02:27:33.445Z,21.55
2017-03-15T02:27:47.583Z,21.46
2017-03-15T02:28:01.790Z,21.53
2017-03-15T02:28:15.940Z,21.56
2017-03-15T02:28:30.133Z,21.55
2017-03-15T02:28:44.299Z,21.61
2017-03-15T02:28:58.428Z,21.58
2017-03-15T02:29:12.496Z,21.56
2017-03-15T02:29:26.579Z,21.61
2017-03-15T02:29:40.717Z,21.61
2017-03-15T02:29:54.848Z,21.58
2017-03-15T02:30:09.004Z,21.64
2017-03-15T02:30:23.147Z,21.7
2017-03-15T02:30:37.274Z,21.7
2017-03-15T02:30:51.422Z,21.73
2017-03-15T02:31:05.584Z,21.76
2017-03-15T02:31:19.696Z,21.7
2017-03-15T02:31:33.855Z,21.78
2017-03-15T02:31:48.007Z,21.74
2017-03-15T02:32:02.090Z,21.82
2017-03-15T02:32:16.214Z,21.67
2017-03-15T02:32:30.310Z,21.82
2017-03-15T02:32:44.426Z,21.77
2017-03-15T02:32:58.564Z,21.74
2017-03-15T02:33:12.643Z,21.82
2017-03-15T02:33:26.813Z,21.82
2017-03-15T02:33:40.894Z,21.7
2017-03-15T02:33:55.034Z,21.73
2017-03-15T02:34:09.132Z,21.74
2017-03-15T02:34:23.265Z,21.86
2017-03-15T02:34:37.388Z,21.78
2017-03-15T02:34:51.464Z,21.85
2017-03-15T02:35:05.607Z,21.85
2017-03-15T02:35:19.703Z,21.83
2017-03-15T02:35:33.809Z,21.82
2017-03-15T02:35:47.993Z,21.86
2017-03-15T02:36:02.131Z,21.89
2017-03-15T02:36:16.256Z,21.77
2017-03-15T02:36:30.431Z,21.89
2017-03-15T02:36:44.581Z,21.9
2017-03-15T02:36:58.699Z,21.92
2017-03-15T02:37:12.839Z,21.86
2017-03-15T02:37:26.987Z,21.83
2017-03-15T02:37:41.154Z,21.85
2017-03-15T02:37:55.246Z,21.83
2017-03-15T02:38:09.367Z,21.82
2017-03-15T02:38:23.480Z,21.77
2017-03-15T02:38:37.576Z,21.9
2017-03-15T02:38:51.749Z,21.76
2017-03-15T02:39:05.864Z,21.8
2017-03-15T02:39:20.055Z,21.93
2017-03-15T02:39:34.182Z,21.8
2017-03-15T02:39:48.354Z,21.93
2017-03-15T02:40:02.509Z,21.85
2017-03-15T02:40:16.895Z,21.9
2017-03-15T02:40:31.066Z,21.85
2017-03-15T02:40:45.166Z,21.86
2017-03-15T02:40:59.379Z,21.85
2017-03-15T02:41:13.538Z,21.93
2017-03-15T02:41:27.608Z,21.82
2017-03-15T02:41:41.683Z,21.77
2017-03-15T02:41:55.920Z,21.83
2017-03-15T02:42:10.092Z,21.85
2017-03-15T02:42:24.134Z,21.83
2017-03-15T02:42:38.243Z,21.89
2017-03-15T02:42:52.392Z,21.89
2017-03-15T02:43:06.540Z,21.89
2017-03-15T02:43:20.613Z,21.85
2017-03-15T02:43:34.772Z,21.82
2017-03-15T02:43:48.922Z,21.85
2017-03-15T02:44:03.123Z,21.85
2017-03-15T02:44:17.260Z,21.78
2017-03-15T02:44:31.396Z,21.8
2017-03-15T02:44:45.498Z,21.76
2017-03-15T02:44:59.645Z,21.73
2017-03-15T02:45:13.765Z,21.71
2017-03-15T02:45:27.871Z,21.77
2017-03-15T02:45:42.019Z,21.68
2017-03-15T02:45:56.124Z,21.74
2017-03-15T02:46:10.260Z,21.73
2017-03-15T02:46:24.426Z,21.67
2017-03-15T02:46:38.561Z,21.71
2017-03-15T02:46:52.691Z,21.68
2017-03-15T02:47:06.831Z,21.66
2017-03-15T02:47:20.977Z,21.62
2017-03-15T02:47:35.111Z,21.62
2017-03-15T02:47:49.280Z,21.64
2017-03-15T02:48:03.389Z,21.62
2017-03-15T02:48:17.556Z,21.62
2017-03-15T02:48:31.657Z,21.62
2017-03-15T02:48:45.783Z,21.56
2017-03-15T02:48:59.884Z,21.58
2017-03-15T02:49:14.068Z,21.55
2017-03-15T02:49:28.159Z,21.52
2017-03-15T02:49:42.326Z,21.48
2017-03-15T02:49:56.477Z,21.52
2017-03-15T02:50:10.605Z,21.41
2017-03-15T02:50:24.721Z,21.4
2017-03-15T02:50:38.841Z,21.37
2017-03-15T02:50:52.992Z,21.4
2017-03-15T02:51:07.129Z,21.36
2017-03-15T02:51:21.282Z,21.36
2017-03-15T02:51:35.377Z,21.34
2017-03-15T02:51:49.535Z,21.31
2017-03-15T02:52:03.622Z,21.36
2017-03-15T02:52:17.705Z,21.41
2017-03-15T02:52:31.832Z,21.33
2017-03-15T02:52:45.921Z,21.38
2017-03-15T02:53:00.070Z,21.33
2017-03-15T02:53:14.224Z,21.31
2017-03-15T02:53:28.374Z,21.28
2017-03-15T02:53:42.487Z,21.3
2017-03-15T02:53:56.550Z,21.23
2017-03-15T02:54:10.682Z,21.28
2017-03-15T02:54:24.779Z,21.21
2017-03-15T02:54:38.903Z,21.12
2017-03-15T02:54:52.998Z,21.15
2017-03-15T02:55:07.123Z,21.08
2017-03-15T02:55:21.521Z,21.08
2017-03-15T02:55:35.667Z,21.15
2017-03-15T02:55:49.810Z,21.19
2017-03-15T02:56:03.946Z,21.11
2017-03-15T02:56:18.043Z,21.08
2017-03-15T02:56:32.148Z,21.15
2017-03-15T02:56:46.306Z,21.12
2017-03-15T02:57:00.429Z,21.13
2017-03-15T02:57:14.551Z,21.13
2017-03-15T02:57:28.713Z,21.15
2017-03-15T02:57:42.806Z,21.16
2017-03-15T02:57:57.017Z,21.12
2017-03-15T02:58:11.164Z,21.13
2017-03-15T02:58:25.376Z,21.09
2017-03-15T02:58:39.512Z,21.12
2017-03-15T02:58:53.677Z,21.08
2017-03-15T02:59:07.783Z,21.09
2017-03-15T02:59:21.892Z,21.15
2017-03-15T02:59:35.992Z,21.18
2017-03-15T02:59:50.077Z,21.06
2017-03-15T03:00:04.189Z,21.01
2017-03-15T03:00:18.359Z,21.09
2017-03-15T03:00:32.542Z,21.08
2017-03-15T03:00:46.624Z,21.09
2017-03-15T03:01:00.794Z,21.08
2017-03-15T03:01:14.867Z,21.08
2017-03-15T03:01:28.990Z,21.03
2017-03-15T03:01:43.131Z,21.09
2017-03-15T03:01:57.262Z,21.09
2017-03-15T03:02:11.438Z,21.11
2017-03-15T03:02:25.578Z,21.11
2017-03-15T03:02:39.908Z,21.04
2017-03-15T03:02:54.039Z,21.08
2017-03-15T03:03:08.172Z,21.01
2017-03-15T03:03:22.300Z,21.11
2017-03-15T03:03:36.346Z,21.08
2017-03-15T03:03:50.486Z,21.13
2017-03-15T03:04:04.628Z,21.08
2017-03-15T03:04:18.805Z,21.09
2017-03-15T03:04:32.982Z,21.09
2017-03-15T03:04:47.084Z,21.13
2017-03-15T03:05:01.232Z,21.04
2017-03-15T03:05:15.435Z,21.09
2017-03-15T03:05:29.674Z,21.09
2017-03-15T03:05:43.851Z,21.08
2017-03-15T03:05:57.997Z,21.13
2017-03-15T03:06:12.181Z,21.08
2017-03-15T03:06:26.301Z,21.04
2017-03-15T03:06:40.471Z,21.04